< < Back
Terminal Aerodrome Forecast


Current Version              Previous Versions:   1  2  3  4  5  6  7  8  9  

Terminal Aerodrome Forecast

812
FTUS42 KFFC 302325
TAFMCN
TAF
KMCN 302325Z 3100/3124 32008KT P6SM SKC
     FM310400 00000KT P6SM SKC
     FM311100 04003KT P6SM FEW200
     FM311800 16003KT P6SM BKN200=

Latest METAR

437
SAUS80 KWBC 310400 RRC
MTRMCN
METAR KMCN 310353Z AUTO 32004KT 10SM CLR 04/M06 A3033 RMK AO2 SLP271
T00391056 TSNO


USA.gov is the U.S. government's official web portal to all federal, state and local government web resources and services.